Edmonton, Australia
Current Conditions -  °F | °C
As of 2:00 PM on Monday 24 Nov 2014 (Local Time) from YBCS Reporting Station
Rain Showers Rain Showers  
Wind Chill: 86°   Ceiling: Unl
Heat Index: 93°   Visibility: 6mi
Dew Point: 73°   Wind: 17mph
Humidity: 66%   Direction: 60°ENE
Pressure: 29.85"   Gusts: NA
Location:  17.02°S, 145.74°E
Report Text: YBCS 240400Z 06015KT 9999 VCSH FEW030 30/23 Q1011
Loading
Personal Weather Stations






























Interactive Weather Map New forecast layout! Learn more

10-Day Weather Forecast

Advertisements
Track Severe Weather on mobile